<?xml version="1.0" encoding="UTF-8" standalone="no" ?>
<gpx xmlns="http://www.topografix.com/GPX/1/1" xmlns:xsi="http://www.w3.org/2001/XMLSchema-instance" xsi:schemaLocation="http://www.topografix.com/GPX/1/1 http://www.topografix.com/GPX/1/1/gpx.xsd" version="1.1" creator="VisuGPX - https://www.visugpx.com">
  <metadata>
    <name>Argentina</name>
    <desc><![CDATA[Downloaded from eMap Software Version 2.75]]></desc>
  </metadata>
  <trk>
    <name><![CDATA[Argentina_14]]></name>
    <extensions>
      <line xmlns="http://www.topografix.com/GPX/gpx_style/0/2">
        <color>ff0000</color>
        <opacity>0.78</opacity>
        <width>0.6000</width>
      </line>
    </extensions>
    <trkseg>
      <trkpt lat="-27.06398" lon="-65.39908">
        <ele>367.841553</ele>
        <time>2005-12-11T18:15:56Z</time>
      </trkpt>
      <trkpt lat="-27.06394" lon="-65.39906">
        <ele>349.576538</ele>
        <time>2005-12-11T18:16:26Z</time>
      </trkpt>
      <trkpt lat="-27.06385" lon="-65.39906">
        <ele>366.880249</ele>
        <time>2005-12-11T18:19:36Z</time>
      </trkpt>
      <trkpt lat="-27.06396" lon="-65.39932">
        <ele>366.399536</ele>
        <time>2005-12-11T18:19:49Z</time>
      </trkpt>
      <trkpt lat="-27.06398" lon="-65.39957">
        <ele>365.438354</ele>
        <time>2005-12-11T18:19:59Z</time>
      </trkpt>
      <trkpt lat="-27.06392" lon="-65.39957">
        <ele>366.399536</ele>
        <time>2005-12-11T18:20:04Z</time>
      </trkpt>
      <trkpt lat="-27.06345" lon="-65.39891">
        <ele>366.399536</ele>
        <time>2005-12-11T18:20:16Z</time>
      </trkpt>
      <trkpt lat="-27.06312" lon="-65.3982">
        <ele>366.880249</ele>
        <time>2005-12-11T18:20:24Z</time>
      </trkpt>
      <trkpt lat="-27.06255" lon="-65.39696">
        <ele>365.918945</ele>
        <time>2005-12-11T18:20:37Z</time>
      </trkpt>
      <trkpt lat="-27.06222" lon="-65.39657">
        <ele>365.918945</ele>
        <time>2005-12-11T18:20:41Z</time>
      </trkpt>
      <trkpt lat="-27.06109" lon="-65.39608">
        <ele>364.476929</ele>
        <time>2005-12-11T18:20:51Z</time>
      </trkpt>
      <trkpt lat="-27.06018" lon="-65.39528">
        <ele>365.918945</ele>
        <time>2005-12-11T18:20:59Z</time>
      </trkpt>
      <trkpt lat="-27.05888" lon="-65.39378">
        <ele>366.399536</ele>
        <time>2005-12-11T18:21:11Z</time>
      </trkpt>
      <trkpt lat="-27.0575" lon="-65.39239">
        <ele>365.438354</ele>
        <time>2005-12-11T18:21:21Z</time>
      </trkpt>
      <trkpt lat="-27.05491" lon="-65.39007">
        <ele>366.399536</ele>
        <time>2005-12-11T18:21:38Z</time>
      </trkpt>
      <trkpt lat="-27.05349" lon="-65.38906">
        <ele>365.438354</ele>
        <time>2005-12-11T18:21:49Z</time>
      </trkpt>
      <trkpt lat="-27.05205" lon="-65.38801">
        <ele>364.957642</ele>
        <time>2005-12-11T18:21:58Z</time>
      </trkpt>
      <trkpt lat="-27.04976" lon="-65.38633">
        <ele>359.67041</ele>
        <time>2005-12-11T18:22:13Z</time>
      </trkpt>
      <trkpt lat="-27.04834" lon="-65.3853">
        <ele>354.86377</ele>
        <time>2005-12-11T18:22:25Z</time>
      </trkpt>
      <trkpt lat="-27.04581" lon="-65.38348">
        <ele>349.576538</ele>
        <time>2005-12-11T18:22:44Z</time>
      </trkpt>
      <trkpt lat="-27.04338" lon="-65.38176">
        <ele>347.653931</ele>
        <time>2005-12-11T18:23:02Z</time>
      </trkpt>
      <trkpt lat="-27.04162" lon="-65.38048">
        <ele>348.615234</ele>
        <time>2005-12-11T18:23:12Z</time>
      </trkpt>
      <trkpt lat="-27.03787" lon="-65.37775">
        <ele>351.979858</ele>
        <time>2005-12-11T18:23:31Z</time>
      </trkpt>
      <trkpt lat="-27.03306" lon="-65.37427">
        <ele>356.786377</ele>
        <time>2005-12-11T18:23:56Z</time>
      </trkpt>
      <trkpt lat="-27.02952" lon="-65.37172">
        <ele>364.476929</ele>
        <time>2005-12-11T18:24:13Z</time>
      </trkpt>
      <trkpt lat="-27.02167" lon="-65.36601">
        <ele>368.322266</ele>
        <time>2005-12-11T18:24:50Z</time>
      </trkpt>
      <trkpt lat="-27.01645" lon="-65.3626">
        <ele>371.206299</ele>
        <time>2005-12-11T18:25:14Z</time>
      </trkpt>
      <trkpt lat="-27.0101" lon="-65.35848">
        <ele>373.128906</ele>
        <time>2005-12-11T18:25:44Z</time>
      </trkpt>
      <trkpt lat="-27.00725" lon="-65.35629">
        <ele>376.012817</ele>
        <time>2005-12-11T18:25:58Z</time>
      </trkpt>
      <trkpt lat="-27.00523" lon="-65.35417">
        <ele>377.935425</ele>
        <time>2005-12-11T18:26:10Z</time>
      </trkpt>
      <trkpt lat="-27.00169" lon="-65.35018">
        <ele>374.570801</ele>
        <time>2005-12-11T18:26:31Z</time>
      </trkpt>
      <trkpt lat="-26.99781" lon="-65.34582">
        <ele>375.051514</ele>
        <time>2005-12-11T18:26:53Z</time>
      </trkpt>
      <trkpt lat="-26.9941" lon="-65.34164">
        <ele>375.051514</ele>
        <time>2005-12-11T18:27:13Z</time>
      </trkpt>
      <trkpt lat="-26.99193" lon="-65.33921">
        <ele>374.570801</ele>
        <time>2005-12-11T18:27:26Z</time>
      </trkpt>
      <trkpt lat="-26.98948" lon="-65.33647">
        <ele>375.532104</ele>
        <time>2005-12-11T18:27:41Z</time>
      </trkpt>
      <trkpt lat="-26.98598" lon="-65.33252">
        <ele>376.012817</ele>
        <time>2005-12-11T18:28:01Z</time>
      </trkpt>
      <trkpt lat="-26.97923" lon="-65.32497">
        <ele>379.377441</ele>
        <time>2005-12-11T18:28:39Z</time>
      </trkpt>
      <trkpt lat="-26.97594" lon="-65.32091">
        <ele>379.858032</ele>
        <time>2005-12-11T18:28:59Z</time>
      </trkpt>
      <trkpt lat="-26.97433" lon="-65.3187">
        <ele>380.338745</ele>
        <time>2005-12-11T18:29:09Z</time>
      </trkpt>
      <trkpt lat="-26.96805" lon="-65.31029">
        <ele>380.338745</ele>
        <time>2005-12-11T18:29:47Z</time>
      </trkpt>
      <trkpt lat="-26.96663" lon="-65.30782">
        <ele>383.222656</ele>
        <time>2005-12-11T18:29:57Z</time>
      </trkpt>
      <trkpt lat="-26.96285" lon="-65.30048">
        <ele>383.222656</ele>
        <time>2005-12-11T18:30:27Z</time>
      </trkpt>
      <trkpt lat="-26.96026" lon="-65.29602">
        <ele>383.222656</ele>
        <time>2005-12-11T18:30:46Z</time>
      </trkpt>
      <trkpt lat="-26.96011" lon="-65.2958">
        <ele>383.222656</ele>
        <time>2005-12-11T18:30:47Z</time>
      </trkpt>
      <trkpt lat="-26.95781" lon="-65.29338">
        <ele>383.703247</ele>
        <time>2005-12-11T18:30:59Z</time>
      </trkpt>
      <trkpt lat="-26.95185" lon="-65.28793">
        <ele>384.184082</ele>
        <time>2005-12-11T18:31:29Z</time>
      </trkpt>
      <trkpt lat="-26.94408" lon="-65.28081">
        <ele>388.029297</ele>
        <time>2005-12-11T18:32:08Z</time>
      </trkpt>
      <trkpt lat="-26.9414" lon="-65.27842">
        <ele>387.548584</ele>
        <time>2005-12-11T18:32:22Z</time>
      </trkpt>
      <trkpt lat="-26.93843" lon="-65.27548">
        <ele>387.548584</ele>
        <time>2005-12-11T18:32:38Z</time>
      </trkpt>
      <trkpt lat="-26.93202" lon="-65.26915">
        <ele>389.951904</ele>
        <time>2005-12-11T18:33:11Z</time>
      </trkpt>
      <trkpt lat="-26.92753" lon="-65.26473">
        <ele>390.913208</ele>
        <time>2005-12-11T18:33:35Z</time>
      </trkpt>
      <trkpt lat="-26.92301" lon="-65.26029">
        <ele>390.432617</ele>
        <time>2005-12-11T18:33:59Z</time>
      </trkpt>
      <trkpt lat="-26.91932" lon="-65.25662">
        <ele>391.393799</ele>
        <time>2005-12-11T18:34:19Z</time>
      </trkpt>
      <trkpt lat="-26.91277" lon="-65.2501">
        <ele>395.719849</ele>
        <time>2005-12-11T18:34:54Z</time>
      </trkpt>
      <trkpt lat="-26.90691" lon="-65.24428">
        <ele>397.642456</ele>
        <time>2005-12-11T18:35:25Z</time>
      </trkpt>
      <trkpt lat="-26.90395" lon="-65.24132">
        <ele>399.565063</ele>
        <time>2005-12-11T18:35:41Z</time>
      </trkpt>
      <trkpt lat="-26.90228" lon="-65.2389">
        <ele>400.045898</ele>
        <time>2005-12-11T18:35:52Z</time>
      </trkpt>
      <trkpt lat="-26.8999" lon="-65.23448">
        <ele>401.487793</ele>
        <time>2005-12-11T18:36:11Z</time>
      </trkpt>
      <trkpt lat="-26.89726" lon="-65.22961">
        <ele>402.929688</ele>
        <time>2005-12-11T18:36:32Z</time>
      </trkpt>
      <trkpt lat="-26.89374" lon="-65.22315">
        <ele>409.659058</ele>
        <time>2005-12-11T18:36:59Z</time>
      </trkpt>
      <trkpt lat="-26.89159" lon="-65.21916">
        <ele>411.100952</ele>
        <time>2005-12-11T18:37:16Z</time>
      </trkpt>
      <trkpt lat="-26.88992" lon="-65.2166">
        <ele>408.697632</ele>
        <time>2005-12-11T18:37:28Z</time>
      </trkpt>
      <trkpt lat="-26.88839" lon="-65.21502">
        <ele>409.659058</ele>
        <time>2005-12-11T18:37:37Z</time>
      </trkpt>
      <trkpt lat="-26.88623" lon="-65.21339">
        <ele>410.139648</ele>
        <time>2005-12-11T18:37:49Z</time>
      </trkpt>
      <trkpt lat="-26.88196" lon="-65.2104">
        <ele>410.139648</ele>
        <time>2005-12-11T18:38:11Z</time>
      </trkpt>
      <trkpt lat="-26.87964" lon="-65.20877">
        <ele>412.062256</ele>
        <time>2005-12-11T18:38:23Z</time>
      </trkpt>
      <trkpt lat="-26.87443" lon="-65.2051">
        <ele>414.465454</ele>
        <time>2005-12-11T18:38:48Z</time>
      </trkpt>
      <trkpt lat="-26.87078" lon="-65.20223">
        <ele>417.8302</ele>
        <time>2005-12-11T18:39:06Z</time>
      </trkpt>
      <trkpt lat="-26.86692" lon="-65.19826">
        <ele>421.675415</ele>
        <time>2005-12-11T18:39:28Z</time>
      </trkpt>
      <trkpt lat="-26.86256" lon="-65.19375">
        <ele>426.001343</ele>
        <time>2005-12-11T18:39:54Z</time>
      </trkpt>
      <trkpt lat="-26.86123" lon="-65.19238">
        <ele>428.885376</ele>
        <time>2005-12-11T18:40:04Z</time>
      </trkpt>
      <trkpt lat="-26.8608" lon="-65.19184">
        <ele>427.92395</ele>
        <time>2005-12-11T18:40:10Z</time>
      </trkpt>
      <trkpt lat="-26.86059" lon="-65.19169">
        <ele>427.443359</ele>
        <time>2005-12-11T18:40:15Z</time>
      </trkpt>
      <trkpt lat="-26.8599" lon="-65.191">
        <ele>428.404663</ele>
        <time>2005-12-11T18:40:23Z</time>
      </trkpt>
      <trkpt lat="-26.85857" lon="-65.18963">
        <ele>426.962769</ele>
        <time>2005-12-11T18:40:35Z</time>
      </trkpt>
      <trkpt lat="-26.85846" lon="-65.18952">
        <ele>427.443359</ele>
        <time>2005-12-11T18:40:36Z</time>
      </trkpt>
      <trkpt lat="-26.85823" lon="-65.18914">
        <ele>425.520752</ele>
        <time>2005-12-11T18:40:39Z</time>
      </trkpt>
      <trkpt lat="-26.85812" lon="-65.18826">
        <ele>422.156006</ele>
        <time>2005-12-11T18:40:45Z</time>
      </trkpt>
      <trkpt lat="-26.85863" lon="-65.18789">
        <ele>421.194824</ele>
        <time>2005-12-11T18:40:50Z</time>
      </trkpt>
      <trkpt lat="-26.85921" lon="-65.18809">
        <ele>420.714111</ele>
        <time>2005-12-11T18:40:55Z</time>
      </trkpt>
      <trkpt lat="-26.85953" lon="-65.18879">
        <ele>420.233398</ele>
        <time>2005-12-11T18:41:01Z</time>
      </trkpt>
      <trkpt lat="-26.8593" lon="-65.18948">
        <ele>420.714111</ele>
        <time>2005-12-11T18:41:07Z</time>
      </trkpt>
      <trkpt lat="-26.85906" lon="-65.18972">
        <ele>421.194824</ele>
        <time>2005-12-11T18:41:10Z</time>
      </trkpt>
      <trkpt lat="-26.8576" lon="-65.19079">
        <ele>423.598022</ele>
        <time>2005-12-11T18:41:23Z</time>
      </trkpt>
      <trkpt lat="-26.85737" lon="-65.19094">
        <ele>423.598022</ele>
        <time>2005-12-11T18:41:25Z</time>
      </trkpt>
      <trkpt lat="-26.85647" lon="-65.19113">
        <ele>425.040161</ele>
        <time>2005-12-11T18:41:32Z</time>
      </trkpt>
      <trkpt lat="-26.8561" lon="-65.19113">
        <ele>424.559448</ele>
        <time>2005-12-11T18:41:35Z</time>
      </trkpt>
      <trkpt lat="-26.85569" lon="-65.19133">
        <ele>424.559448</ele>
        <time>2005-12-11T18:41:39Z</time>
      </trkpt>
      <trkpt lat="-26.85526" lon="-65.1915">
        <ele>424.559448</ele>
        <time>2005-12-11T18:41:43Z</time>
      </trkpt>
      <trkpt lat="-26.85503" lon="-65.19156">
        <ele>424.559448</ele>
        <time>2005-12-11T18:41:45Z</time>
      </trkpt>
      <trkpt lat="-26.85423" lon="-65.19201">
        <ele>425.040161</ele>
        <time>2005-12-11T18:41:52Z</time>
      </trkpt>
      <trkpt lat="-26.85359" lon="-65.19221">
        <ele>425.040161</ele>
        <time>2005-12-11T18:41:57Z</time>
      </trkpt>
      <trkpt lat="-26.8505" lon="-65.19234">
        <ele>426.001343</ele>
        <time>2005-12-11T18:42:17Z</time>
      </trkpt>
      <trkpt lat="-26.84797" lon="-65.19244">
        <ele>426.482056</ele>
        <time>2005-12-11T18:42:34Z</time>
      </trkpt>
      <trkpt lat="-26.84748" lon="-65.19227">
        <ele>426.001343</ele>
        <time>2005-12-11T18:42:41Z</time>
      </trkpt>
      <trkpt lat="-26.84735" lon="-65.19221">
        <ele>425.520752</ele>
        <time>2005-12-11T18:42:43Z</time>
      </trkpt>
      <trkpt lat="-26.84692" lon="-65.19234">
        <ele>426.482056</ele>
        <time>2005-12-11T18:42:49Z</time>
      </trkpt>
      <trkpt lat="-26.8466" lon="-65.19251">
        <ele>426.001343</ele>
        <time>2005-12-11T18:42:53Z</time>
      </trkpt>
      <trkpt lat="-26.84539" lon="-65.19257">
        <ele>426.482056</ele>
        <time>2005-12-11T18:43:03Z</time>
      </trkpt>
      <trkpt lat="-26.84303" lon="-65.19268">
        <ele>427.443359</ele>
        <time>2005-12-11T18:43:19Z</time>
      </trkpt>
      <trkpt lat="-26.83889" lon="-65.19285">
        <ele>429.365967</ele>
        <time>2005-12-11T18:43:47Z</time>
      </trkpt>
      <trkpt lat="-26.83754" lon="-65.19287">
        <ele>430.327271</ele>
        <time>2005-12-11T18:43:57Z</time>
      </trkpt>
      <trkpt lat="-26.83451" lon="-65.19298">
        <ele>431.769165</ele>
        <time>2005-12-11T18:44:20Z</time>
      </trkpt>
      <trkpt lat="-26.83363" lon="-65.19291">
        <ele>431.769165</ele>
        <time>2005-12-11T18:44:31Z</time>
      </trkpt>
      <trkpt lat="-26.83348" lon="-65.19289">
        <ele>430.807983</ele>
        <time>2005-12-11T18:44:38Z</time>
      </trkpt>
      <trkpt lat="-26.83282" lon="-65.19294">
        <ele>429.846558</ele>
        <time>2005-12-11T18:44:49Z</time>
      </trkpt>
      <trkpt lat="-26.83218" lon="-65.19319">
        <ele>430.327271</ele>
        <time>2005-12-11T18:44:59Z</time>
      </trkpt>
      <trkpt lat="-26.83185" lon="-65.19354">
        <ele>431.288574</ele>
        <time>2005-12-11T18:45:05Z</time>
      </trkpt>
    </trkseg>
  </trk>
</gpx>